Terminal Aerodrome Forecast
Issued by NWS Austin/San Antonio, TX

Current Version | Previous Version | Text Only | Print | Product List | Glossary Off
Versions: 1 2 3 4 5 6 7 8 9 10 11 12 13 14

916
FTUS44 KEWX 232006 AAA
TAFDRT
TAF AMD
KDRT 232006Z 2320/2418 11007KT P6SM VCTS BKN050CB
     FM240200 10005KT P6SM BKN100=

USA.gov is the U.S. government's official web portal to all federal, state and local government web resources and services.